createdAt,value
2016-04-11T10:47:02.233Z,8.25
2016-04-11T10:47:15.469Z,8.31
2016-04-11T10:47:30.032Z,8.39
2016-04-11T10:47:44.063Z,8.42
2016-04-11T10:47:57.938Z,8.35
2016-04-11T10:48:11.925Z,8.44
2016-04-11T10:48:26.441Z,8.36
2016-04-11T10:48:43.222Z,8.4
2016-04-11T10:48:57.050Z,8.52
2016-04-11T10:49:11.113Z,8.44
2016-04-11T10:49:24.975Z,8.58
2016-04-11T10:49:38.991Z,8.54
2016-04-11T10:49:53.194Z,8.6
2016-04-11T10:50:07.116Z,8.57
2016-04-11T10:50:21.212Z,8.61
2016-04-11T10:50:34.977Z,8.54
2016-04-11T10:50:48.899Z,8.67
2016-04-11T10:51:03.196Z,8.61
2016-04-11T10:51:16.902Z,8.65
2016-04-11T10:51:44.730Z,8.6
2016-04-11T10:51:58.730Z,8.6
2016-04-11T10:52:12.936Z,8.54
2016-04-11T10:52:41.296Z,8.54
2016-04-11T10:52:55.311Z,8.54
2016-04-11T10:53:09.202Z,8.58
2016-04-11T10:53:23.111Z,8.53
2016-04-11T10:53:37.064Z,8.54
2016-04-11T10:53:51.236Z,8.54
2016-04-11T10:54:05.080Z,8.54
2016-04-11T10:54:18.863Z,8.49
2016-04-11T10:54:32.816Z,8.42
2016-04-11T10:54:46.785Z,8.43
2016-04-11T10:55:00.707Z,8.35
2016-04-11T10:55:14.507Z,8.22
2016-04-11T10:55:28.507Z,8.25
2016-04-11T10:55:42.460Z,8.19
2016-04-11T10:55:56.397Z,8.22
2016-04-11T10:56:24.212Z,8.21
2016-04-11T10:56:38.493Z,8.24
2016-04-11T10:56:52.603Z,8.25
2016-04-11T10:57:06.306Z,8.09
2016-04-11T10:57:20.138Z,8.19
2016-04-11T10:57:34.372Z,8.21
2016-04-11T10:57:48.232Z,8.14
2016-04-11T10:58:02.466Z,8.16
2016-04-11T10:58:16.218Z,8.14
2016-04-11T10:58:30.890Z,7.98
2016-04-11T10:58:44.624Z,8.01
2016-04-11T10:58:58.609Z,8.21
2016-04-11T10:59:12.643Z,8.22
2016-04-11T10:59:26.596Z,8.16
2016-04-11T10:59:40.455Z,8.21
2016-04-11T10:59:54.487Z,8.21
2016-04-11T11:00:08.190Z,8.28
2016-04-11T11:00:36.770Z,8.44
2016-04-11T11:00:50.364Z,8.34
2016-04-11T11:01:04.317Z,8.39
2016-04-11T11:01:18.179Z,8.36
2016-04-11T11:01:31.992Z,8.52
2016-04-11T11:01:45.835Z,8.5
2016-04-11T11:01:58.898Z,8.58
2016-04-11T11:02:12.759Z,8.54
2016-04-11T11:02:26.478Z,8.57
2016-04-11T11:02:39.775Z,8.52
2016-04-11T11:02:53.744Z,8.52
2016-04-11T11:03:08.103Z,8.53
2016-04-11T11:03:22.294Z,8.54
2016-04-11T11:03:36.232Z,8.58
2016-04-11T11:03:50.123Z,8.54
2016-04-11T11:04:04.076Z,8.5
2016-04-11T11:04:17.829Z,8.53
2016-04-11T11:04:31.532Z,8.57
2016-04-11T11:04:53.766Z,8.64
2016-04-11T11:05:07.360Z,8.58
2016-04-11T11:05:35.331Z,8.68
2016-04-11T11:05:49.331Z,8.67
2016-04-11T11:06:03.221Z,8.6
2016-04-11T11:06:17.098Z,8.54
2016-04-11T11:06:30.848Z,8.64
2016-04-11T11:06:59.020Z,8.77
2016-04-11T11:07:13.258Z,8.83
2016-04-11T11:07:27.617Z,8.87
2016-04-11T11:07:41.554Z,8.85
2016-04-11T11:07:55.336Z,8.92
2016-04-11T11:08:09.070Z,9.01
2016-04-11T11:08:22.978Z,8.94
2016-04-11T11:08:36.963Z,8.95
2016-04-11T11:08:50.822Z,8.92
2016-04-11T11:09:05.213Z,8.89
2016-04-11T11:09:18.920Z,8.85
2016-04-11T11:09:32.764Z,8.87
2016-04-11T11:09:46.139Z,8.97
2016-04-11T11:10:00.482Z,8.85
2016-04-11T11:10:28.845Z,8.94
2016-04-11T11:10:43.235Z,8.9
2016-04-11T11:10:57.048Z,8.86
2016-04-11T11:11:10.563Z,8.9
2016-04-11T11:11:24.690Z,8.85
2016-04-11T11:11:39.019Z,8.85
2016-04-11T11:11:52.925Z,8.79
2016-04-11T11:12:09.675Z,8.89
2016-04-11T11:12:23.724Z,8.97
2016-04-11T11:12:37.724Z,8.9
2016-04-11T11:12:51.833Z,8.85
2016-04-11T11:13:05.536Z,8.86
2016-04-11T11:13:19.259Z,8.87
2016-04-11T11:13:33.228Z,8.87
2016-04-11T11:13:47.165Z,8.94
2016-04-11T11:14:00.665Z,8.83
2016-04-11T11:14:43.152Z,8.71
2016-04-11T11:14:56.402Z,8.68
2016-04-11T11:15:10.917Z,8.65
2016-04-11T11:15:24.889Z,8.65
2016-04-11T11:15:38.592Z,8.65
2016-04-11T11:15:52.342Z,8.54
2016-04-11T11:16:06.201Z,8.53
2016-04-11T11:16:20.328Z,8.6
2016-04-11T11:16:34.250Z,8.57
2016-04-11T11:16:51.125Z,8.53
2016-04-11T11:17:05.282Z,8.36
2016-04-11T11:17:22.145Z,7.96
2016-04-11T11:17:36.004Z,8.01
2016-04-11T11:17:50.098Z,7.98
2016-04-11T11:18:04.473Z,8.09
2016-04-11T11:18:18.819Z,8.16
2016-04-11T11:18:32.756Z,8.19
2016-04-11T11:18:46.569Z,8.09
2016-04-11T11:19:00.506Z,8.06
2016-04-11T11:19:14.352Z,8.04
2016-04-11T11:19:28.243Z,7.95
2016-04-11T11:19:56.477Z,8.06
2016-04-11T11:20:10.118Z,8.11
2016-04-11T11:20:27.121Z,8.14
2016-04-11T11:20:40.949Z,8.25
2016-04-11T11:20:54.668Z,8.19
2016-04-11T11:21:08.496Z,8.14
2016-04-11T11:21:22.186Z,7.82
2016-04-11T11:21:37.264Z,7.88
2016-04-11T11:21:51.171Z,7.96
2016-04-11T11:22:05.421Z,7.96
2016-04-11T11:22:20.204Z,8.01
2016-04-11T11:22:34.079Z,7.91
2016-04-11T11:22:50.844Z,7.89
2016-04-11T11:23:07.641Z,7.85
2016-04-11T11:23:21.660Z,7.86
2016-04-11T11:23:35.785Z,7.85
2016-04-11T11:23:50.129Z,7.58
2016-04-11T11:24:03.926Z,7.37
2016-04-11T11:24:17.757Z,7.19
2016-04-11T11:24:31.804Z,7.26
2016-04-11T11:24:45.913Z,7.3
2016-04-11T11:24:59.585Z,7.37
2016-04-11T11:25:13.385Z,7.4
2016-04-11T11:25:27.166Z,7.54
2016-04-11T11:25:40.900Z,7.55
2016-04-11T11:26:00.728Z,7.51
2016-04-11T11:26:15.105Z,7.64
2016-04-11T11:26:32.090Z,7.67
2016-04-11T11:26:48.887Z,7.55
2016-04-11T11:27:03.027Z,7.55
2016-04-11T11:27:17.030Z,7.52
2016-04-11T11:27:31.046Z,7.41
2016-04-11T11:27:47.999Z,7.52
2016-04-11T11:28:05.015Z,7.64
2016-04-11T11:28:19.190Z,7.64
2016-04-11T11:28:33.158Z,7.54
2016-04-11T11:28:47.096Z,7.33
2016-04-11T11:29:01.502Z,6.98
2016-04-11T11:29:16.052Z,7.12
2016-04-11T11:29:30.208Z,7.26
2016-04-11T11:29:44.114Z,7.29
2016-04-11T11:29:58.099Z,7.16
2016-04-11T11:30:12.005Z,7.08
2016-04-11T11:30:25.851Z,7.15
2016-04-11T11:31:07.726Z,7.36
2016-04-11T11:31:21.666Z,7.56
2016-04-11T11:31:49.713Z,7.74
2016-04-11T11:32:06.885Z,7.59
2016-04-11T11:32:23.528Z,7.73
2016-04-11T11:32:51.684Z,7.83
2016-04-11T11:33:06.106Z,7.91
2016-04-11T11:33:19.999Z,7.64
2016-04-11T11:33:33.781Z,7.82
2016-04-11T11:34:15.439Z,7.91
2016-04-11T11:34:29.220Z,7.95
2016-04-11T11:34:43.705Z,7.95
2016-04-11T11:35:25.629Z,8.11
2016-04-11T11:35:39.692Z,8.14
2016-04-11T11:35:56.458Z,8.17
2016-04-11T11:36:10.676Z,8.14
2016-04-11T11:36:24.679Z,8.19
2016-04-11T11:36:38.882Z,8.11
2016-04-11T11:36:52.804Z,8.09
2016-04-11T11:37:09.648Z,8.16
2016-04-11T11:37:29.432Z,8.22
2016-04-11T11:37:43.182Z,8.21
2016-04-11T11:37:56.901Z,8.26
2016-04-11T11:38:10.948Z,8.22
2016-04-11T11:38:24.951Z,8.25
2016-04-11T11:38:39.092Z,8.22
2016-04-11T11:38:52.904Z,8.28
2016-04-11T11:39:06.123Z,8.25
2016-04-11T11:39:20.281Z,8.25
2016-04-11T11:39:34.062Z,8.36
2016-04-11T11:40:02.031Z,7.83
2016-04-11T11:40:16.159Z,7.73
2016-04-11T11:40:30.284Z,7.58
2016-04-11T11:40:44.597Z,7.7
2016-04-11T11:40:58.643Z,7.61
2016-04-11T11:41:12.568Z,7.71
2016-04-11T11:41:26.443Z,7.82
2016-04-11T11:41:40.178Z,8.01
2016-04-11T11:42:08.084Z,7.91
2016-04-11T11:42:22.070Z,7.89
2016-04-11T11:42:35.930Z,7.95
2016-04-11T11:42:50.102Z,7.99
2016-04-11T11:43:04.023Z,7.95
2016-04-11T11:43:17.276Z,7.95
2016-04-11T11:43:31.230Z,7.85
2016-04-11T11:43:45.073Z,7.41
2016-04-11T11:43:58.792Z,7.34
2016-04-11T11:44:12.686Z,7.37
2016-04-11T11:44:29.545Z,7.41
2016-04-11T11:44:43.561Z,7.41
2016-04-11T11:44:57.498Z,7.41
2016-04-11T11:45:11.389Z,7.4
2016-04-11T11:45:25.532Z,7.34
2016-04-11T11:45:39.767Z,7.19
2016-04-11T11:45:53.532Z,7.19
2016-04-11T11:46:07.470Z,7.09
2016-04-11T11:46:21.316Z,7.05
2016-04-11T11:46:35.409Z,6.97
2016-04-11T11:46:49.144Z,7
2016-04-11T11:47:03.269Z,7.03
2016-04-11T11:47:17.569Z,7
2016-04-11T11:47:31.397Z,7.01
2016-04-11T11:47:45.334Z,7.04
2016-04-11T11:47:59.537Z,7.03
2016-04-11T11:48:14.025Z,7.16
2016-04-11T11:48:27.994Z,6.98
2016-04-11T11:48:42.072Z,7.03
2016-04-11T11:48:55.884Z,7.13
2016-04-11T11:49:10.056Z,7.05
2016-04-11T11:49:24.308Z,7.08
2016-04-11T11:49:38.324Z,7.01
2016-04-11T11:49:53.058Z,7.03
2016-04-11T11:50:06.964Z,6.94
2016-04-11T11:50:35.592Z,6.83
2016-04-11T11:50:49.452Z,6.78
2016-04-11T11:51:03.452Z,6.86
2016-04-11T11:51:17.360Z,6.88
2016-04-11T11:51:34.766Z,6.83
2016-04-11T11:51:48.610Z,6.82
2016-04-11T11:52:02.641Z,6.68
2016-04-11T11:52:16.598Z,6.54
2016-04-11T11:52:30.442Z,6.42
2016-04-11T11:52:44.505Z,6.36
2016-04-11T11:52:58.505Z,6.31
2016-04-11T11:53:12.770Z,6.33
2016-04-11T11:53:26.913Z,6.29
2016-04-11T11:53:40.600Z,6.29
2016-04-11T11:53:54.444Z,6.37
2016-04-11T11:54:08.507Z,6.39
2016-04-11T11:54:22.353Z,6.4
2016-04-11T11:54:36.275Z,6.25
2016-04-11T11:54:53.213Z,6.33
2016-04-11T11:55:07.119Z,6.09
2016-04-11T11:55:21.199Z,6.17
2016-04-11T11:55:35.355Z,6.02
2016-04-11T11:55:49.277Z,6.06
2016-04-11T11:56:03.121Z,5.98
2016-04-11T11:56:17.124Z,6.07
2016-04-11T11:56:31.499Z,6.1
2016-04-11T11:56:45.280Z,6.13
2016-04-11T11:56:59.171Z,6.2
2016-04-11T11:57:30.111Z,6.06
2016-04-11T11:57:45.127Z,5.99
2016-04-11T11:57:59.018Z,5.8
2016-04-11T11:58:12.941Z,5.78
2016-04-11T11:58:26.879Z,5.51
2016-04-11T11:58:40.785Z,5.41
2016-04-11T11:58:55.051Z,5.39
2016-04-11T11:59:09.020Z,5.27
2016-04-11T11:59:22.819Z,5.21
2016-04-11T11:59:36.663Z,5.16
2016-04-11T11:59:50.835Z,5.13
2016-04-11T12:00:18.790Z,4.88
2016-04-11T12:00:32.571Z,4.83
2016-04-11T12:00:46.665Z,4.68
2016-04-11T12:01:01.243Z,4.68
2016-04-11T12:01:14.857Z,4.54
2016-04-11T12:01:29.247Z,4.65
2016-04-11T12:01:43.075Z,4.57
2016-04-11T12:01:56.982Z,4.66
2016-04-11T12:02:11.107Z,4.57
2016-04-11T12:02:25.437Z,4.47
2016-04-11T12:02:42.359Z,4.58
2016-04-11T12:02:55.546Z,4.57
2016-04-11T12:03:09.515Z,4.61
2016-04-11T12:03:23.189Z,4.64
2016-04-11T12:03:37.001Z,4.54
2016-04-11T12:03:50.892Z,4.56
2016-04-11T12:04:04.986Z,4.58
2016-04-11T12:04:18.927Z,4.56
2016-04-11T12:04:33.208Z,4.57
2016-04-11T12:04:47.787Z,4.64
2016-04-11T12:05:01.537Z,4.61
2016-04-11T12:05:15.493Z,4.56
2016-04-11T12:05:29.493Z,4.56
2016-04-11T12:05:43.290Z,4.56
2016-04-11T12:05:57.743Z,4.51
2016-04-11T12:06:11.336Z,4.58
2016-04-11T12:06:25.104Z,4.66
2016-04-11T12:06:40.073Z,4.69
2016-04-11T12:06:53.948Z,4.74
2016-04-11T12:07:08.182Z,4.94
2016-04-11T12:07:22.247Z,5.06
2016-04-11T12:07:36.106Z,5.13
2016-04-11T12:07:50.075Z,5.2
2016-04-11T12:08:03.965Z,5.31
2016-04-11T12:08:17.923Z,5.41
2016-04-11T12:08:32.798Z,5.48
2016-04-11T12:08:46.876Z,5.49
2016-04-11T12:09:01.251Z,5.46
2016-04-11T12:09:18.486Z,5.36
2016-04-11T12:09:32.642Z,5.42
2016-04-11T12:09:50.486Z,5.23
2016-04-11T12:10:04.392Z,5.13
2016-04-11T12:10:18.334Z,4.92
2016-04-11T12:10:32.662Z,4.69
2016-04-11T12:10:46.537Z,4.68
2016-04-11T12:11:00.412Z,4.58
2016-04-11T12:11:14.445Z,4.51
2016-04-11T12:11:28.820Z,4.46
2016-04-11T12:11:45.758Z,4.53
2016-04-11T12:11:59.836Z,4.5
2016-04-11T12:12:13.870Z,4.47
2016-04-11T12:12:27.745Z,4.47
2016-04-11T12:12:42.011Z,4.48
2016-04-11T12:12:56.042Z,4.39
2016-04-11T12:13:10.183Z,4.42
2016-04-11T12:13:24.076Z,4.38
2016-04-11T12:13:38.264Z,4.42
2016-04-11T12:13:52.217Z,4.54
2016-04-11T12:14:06.201Z,4.58
2016-04-11T12:14:20.829Z,4.64
2016-04-11T12:14:34.767Z,4.74
2016-04-11T12:14:49.157Z,4.74
2016-04-11T12:15:03.345Z,4.83
2016-04-11T12:15:17.737Z,4.74
2016-04-11T12:15:34.534Z,4.74
2016-04-11T12:15:48.487Z,4.94
2016-04-11T12:16:02.519Z,4.91
2016-04-11T12:16:16.411Z,4.83
2016-04-11T12:16:30.271Z,4.79
2016-04-11T12:16:44.036Z,4.68
2016-04-11T12:16:57.802Z,4.66
2016-04-11T12:17:11.693Z,4.46
2016-04-11T12:17:25.947Z,4.3
2016-04-11T12:17:40.493Z,4.11
2016-04-11T12:17:54.415Z,4.1
2016-04-11T12:18:08.368Z,4.07
2016-04-11T12:18:22.449Z,4.03
2016-04-11T12:18:36.308Z,3.93
2016-04-11T12:18:50.199Z,3.71
2016-04-11T12:19:04.042Z,3.53
2016-04-11T12:19:17.952Z,3.63
2016-04-11T12:19:31.233Z,3.58
2016-04-11T12:19:45.373Z,3.58
2016-04-11T12:19:59.280Z,3.72
2016-04-11T12:20:13.123Z,3.97
2016-04-11T12:20:27.141Z,4.03
2016-04-11T12:20:41.375Z,4.2
2016-04-11T12:20:55.688Z,4.3
2016-04-11T12:21:12.485Z,4.51
2016-04-11T12:21:26.503Z,4.69
2016-04-11T12:21:40.253Z,4.74
2016-04-11T12:21:54.128Z,4.78
2016-04-11T12:22:08.082Z,4.91
2016-04-11T12:22:21.991Z,4.9
2016-04-11T12:22:36.194Z,4.97
2016-04-11T12:23:18.181Z,4.98
2016-04-11T12:23:46.088Z,5.06
2016-04-11T12:24:28.386Z,5.13
2016-04-11T12:24:42.621Z,5.2
2016-04-11T12:24:56.715Z,5.15
2016-04-11T12:25:10.574Z,5.13
2016-04-11T12:25:24.655Z,5.12
2016-04-11T12:25:38.655Z,5.02
2016-04-11T12:25:52.499Z,4.97
2016-04-11T12:26:06.327Z,4.92
2016-04-11T12:26:34.330Z,4.76
2016-04-11T12:26:48.642Z,4.69
2016-04-11T12:27:02.674Z,4.6
2016-04-11T12:27:33.910Z,4.66
2016-04-11T12:27:47.738Z,4.72
2016-04-11T12:28:01.769Z,4.69
2016-04-11T12:28:15.741Z,4.56
2016-04-11T12:28:28.851Z,4.6
2016-04-11T12:28:42.960Z,4.69
2016-04-11T12:28:56.913Z,4.76
2016-04-11T12:29:11.491Z,4.91
2016-04-11T12:29:25.774Z,4.88
2016-04-11T12:29:39.649Z,4.94
2016-04-11T12:29:53.649Z,4.91
2016-04-11T12:30:10.618Z,4.83
2016-04-11T12:30:24.794Z,4.87
2016-04-11T12:30:39.075Z,4.78
2016-04-11T12:30:52.935Z,4.69
2016-04-11T12:31:07.075Z,4.74
2016-04-11T12:31:20.265Z,4.72
2016-04-11T12:31:34.327Z,4.71
2016-04-11T12:31:48.280Z,4.72
2016-04-11T12:32:02.437Z,4.76
2016-04-11T12:32:16.252Z,4.72
2016-04-11T12:32:44.533Z,4.79
2016-04-11T12:32:58.705Z,4.88
2016-04-11T12:33:12.612Z,4.94
2016-04-11T12:33:26.442Z,5.1
2016-04-11T12:33:40.457Z,5.08
2016-04-11T12:33:54.473Z,4.97
2016-04-11T12:34:08.270Z,5.02
2016-04-11T12:34:22.538Z,5.13
2016-04-11T12:34:36.320Z,5.12
2016-04-11T12:34:50.554Z,5.24
2016-04-11T12:35:04.913Z,5.23
2016-04-11T12:35:19.245Z,5.23
2016-04-11T12:35:36.370Z,5.27
2016-04-11T12:35:53.666Z,5.2
2016-04-11T12:36:07.479Z,5.34
2016-04-11T12:36:21.481Z,5.36
2016-04-11T12:36:38.418Z,5.34
2016-04-11T12:36:52.622Z,5.27
2016-04-11T12:37:06.731Z,5.03
2016-04-11T12:37:23.625Z,4.9
2016-04-11T12:37:41.109Z,4.78
2016-04-11T12:37:55.765Z,4.91
2016-04-11T12:38:09.906Z,5
2016-04-11T12:38:23.784Z,5.15
2016-04-11T12:38:37.893Z,5.21
2016-04-11T12:38:51.784Z,5.2
2016-04-11T12:39:05.737Z,5.39
2016-04-11T12:39:19.459Z,5.49
2016-04-11T12:39:33.802Z,5.6
2016-04-11T12:39:47.912Z,5.82
2016-04-11T12:40:01.177Z,5.73
2016-04-11T12:40:15.071Z,5.87
2016-04-11T12:40:29.196Z,5.89
2016-04-11T12:40:43.509Z,6.03
2016-04-11T12:40:57.712Z,6.09
2016-04-11T12:41:11.415Z,6.1
2016-04-11T12:41:25.307Z,6.21
2016-04-11T12:41:53.386Z,6.03
2016-04-11T12:42:34.809Z,5.96
2016-04-11T12:42:51.356Z,5.98
2016-04-11T12:43:19.750Z,5.89
2016-04-11T12:43:36.797Z,5.92
2016-04-11T12:43:50.516Z,5.95
2016-04-11T12:44:04.844Z,6.02
2016-04-11T12:44:18.894Z,6.03
2016-04-11T12:44:33.144Z,6.1
2016-04-11T12:45:14.865Z,6.33
2016-04-11T12:45:29.225Z,6.13
2016-04-11T12:45:43.131Z,6.18
2016-04-11T12:45:57.006Z,6.14
2016-04-11T12:46:10.975Z,6.1
2016-04-11T12:46:24.070Z,6.05
2016-04-11T12:46:38.133Z,6.07
2016-04-11T12:46:52.149Z,5.99
2016-04-11T12:47:06.008Z,5.78
2016-04-11T12:47:19.948Z,5.6
2016-04-11T12:47:48.089Z,5.49
2016-04-11T12:48:01.761Z,5.41
2016-04-11T12:48:16.138Z,5.27
2016-04-11T12:48:30.060Z,5.05
2016-04-11T12:48:43.763Z,4.92
2016-04-11T12:48:57.591Z,4.76
2016-04-11T12:49:11.388Z,4.71
2016-04-11T12:49:25.423Z,4.58
2016-04-11T12:49:39.267Z,4.5
2016-04-11T12:49:53.220Z,4.46
2016-04-11T12:50:07.345Z,4.32
2016-04-11T12:50:21.239Z,4.29
2016-04-11T12:50:35.020Z,4.28
2016-04-11T12:50:51.801Z,4.15
2016-04-11T12:51:05.817Z,4.15
2016-04-11T12:51:19.678Z,4.12
2016-04-11T12:51:33.678Z,4.14
2016-04-11T12:51:47.600Z,4.08
2016-04-11T12:52:01.475Z,4.07
2016-04-11T12:52:15.306Z,4.02
2016-04-11T12:52:29.181Z,3.9
2016-04-11T12:52:43.197Z,3.84
2016-04-11T12:52:57.150Z,3.84
2016-04-11T12:53:10.744Z,3.81
2016-04-11T12:53:24.527Z,3.79
2016-04-11T12:53:38.371Z,3.85
2016-04-11T12:53:52.589Z,3.84
2016-04-11T12:54:06.621Z,3.74
2016-04-11T12:54:20.639Z,3.78
2016-04-11T12:54:34.717Z,3.78
2016-04-11T12:54:48.827Z,3.9
2016-04-11T12:55:02.858Z,3.86
2016-04-11T12:55:19.704Z,3.78
2016-04-11T12:55:47.610Z,3.69
2016-04-11T12:56:01.391Z,3.71
2016-04-11T12:56:15.363Z,3.72
2016-04-11T12:56:29.051Z,3.74
2016-04-11T12:56:42.832Z,3.64
2016-04-11T12:57:39.257Z,3.34
2016-04-11T12:57:53.022Z,3.32
2016-04-11T12:58:06.788Z,3.29
2016-04-11T12:58:20.712Z,3.35
2016-04-11T12:58:34.556Z,3.43
2016-04-11T12:58:48.368Z,3.43
2016-04-11T12:59:01.399Z,3.64
2016-04-11T12:59:15.591Z,3.72
2016-04-11T12:59:29.513Z,3.78
2016-04-11T12:59:43.575Z,3.78
2016-04-11T12:59:57.341Z,3.71
2016-04-11T13:00:11.310Z,3.78
2016-04-11T13:00:25.265Z,3.66
2016-04-11T13:00:39.327Z,3.71
2016-04-11T13:00:53.265Z,3.69
2016-04-11T13:01:07.218Z,3.66
2016-04-11T13:01:21.252Z,3.71
2016-04-11T13:01:35.315Z,3.67
2016-04-11T13:01:48.408Z,3.64
2016-04-11T13:02:02.533Z,3.66
2016-04-11T13:02:16.332Z,3.63
2016-04-11T13:02:30.301Z,3.64
2016-04-11T13:02:44.145Z,3.64
2016-04-11T13:02:58.004Z,3.64
2016-04-11T13:03:12.582Z,3.69
2016-04-11T13:03:26.320Z,3.71
2016-04-11T13:03:40.288Z,3.78
2016-04-11T13:03:56.288Z,3.85
2016-04-11T13:04:10.366Z,3.89
2016-04-11T13:04:24.744Z,3.84
2016-04-11T13:04:38.838Z,3.76
2016-04-11T13:04:53.463Z,3.78
2016-04-11T13:05:07.198Z,3.64
2016-04-11T13:05:21.293Z,3.69
2016-04-11T13:05:35.559Z,3.66
2016-04-11T13:05:50.012Z,3.54
2016-04-11T13:06:03.825Z,3.57
2016-04-11T13:06:17.421Z,3.57
2016-04-11T13:06:31.437Z,3.39
2016-04-11T13:06:45.624Z,3.43
2016-04-11T13:06:59.624Z,3.39
2016-04-11T13:07:13.890Z,3.43
2016-04-11T13:07:27.784Z,3.4
2016-04-11T13:07:41.081Z,3.46
2016-04-11T13:08:07.237Z,3.43
2016-04-11T13:08:21.567Z,3.6
2016-04-11T13:08:35.473Z,3.61
2016-04-11T13:08:49.411Z,3.54
2016-04-11T13:09:03.458Z,3.61
2016-04-11T13:09:17.445Z,3.67
2016-04-11T13:09:34.336Z,3.63
2016-04-11T13:09:48.461Z,3.69
2016-04-11T13:10:02.867Z,3.58
2016-04-11T13:10:16.823Z,3.64
2016-04-11T13:10:30.823Z,3.67
2016-04-11T13:10:44.698Z,3.61
2016-04-11T13:10:58.495Z,3.6
2016-04-11T13:11:12.698Z,3.56
2016-04-11T13:11:29.717Z,3.56
2016-04-11T13:11:46.826Z,3.53
2016-04-11T13:12:00.904Z,3.58
2016-04-11T13:12:15.220Z,3.53
2016-04-11T13:12:32.126Z,3.46
2016-04-11T13:12:46.001Z,3.4
2016-04-11T13:12:59.923Z,3.27
2016-04-11T13:13:14.016Z,3.21
2016-04-11T13:13:27.847Z,3.16
2016-04-11T13:13:41.815Z,3.03
2016-04-11T13:13:56.003Z,3.08
2016-04-11T13:14:09.925Z,3.16
2016-04-11T13:14:24.146Z,3.16
2016-04-11T13:14:38.725Z,3.23
2016-04-11T13:15:06.584Z,3.32
2016-04-11T13:15:21.070Z,3.43
2016-04-11T13:15:34.883Z,3.63
2016-04-11T13:15:48.945Z,3.67
2016-04-11T13:16:02.883Z,3.74
2016-04-11T13:16:16.948Z,3.79
2016-04-11T13:16:31.276Z,3.82
2016-04-11T13:16:45.151Z,3.82
2016-04-11T13:16:59.480Z,3.86
2016-04-11T13:17:13.698Z,3.82
2016-04-11T13:17:27.701Z,3.82
2016-04-11T13:17:41.654Z,3.82
2016-04-11T13:17:55.748Z,3.79
2016-04-11T13:18:09.654Z,3.82
2016-04-11T13:18:23.531Z,3.81
2016-04-11T13:18:37.375Z,3.78
2016-04-11T13:18:51.563Z,3.82
2016-04-11T13:19:05.813Z,3.9
2016-04-11T13:19:19.863Z,3.99
2016-04-11T13:19:33.738Z,3.96
2016-04-11T13:19:47.831Z,4.07
2016-04-11T13:20:02.175Z,4.02
2016-04-11T13:20:16.131Z,3.97
2016-04-11T13:20:30.772Z,3.9
2016-04-11T13:20:44.975Z,4.03
2016-04-11T13:20:59.287Z,3.84
2016-04-11T13:21:16.289Z,3.75
2016-04-11T13:21:30.211Z,3.69
2016-04-11T13:21:44.149Z,3.69
2016-04-11T13:21:58.274Z,3.63
2016-04-11T13:22:12.352Z,3.64
2016-04-11T13:22:26.480Z,3.63
2016-04-11T13:22:40.074Z,3.71
2016-04-11T13:22:54.011Z,3.79
2016-04-11T13:23:07.683Z,4
2016-04-11T13:23:22.311Z,3.99
2016-04-11T13:23:36.155Z,4.1
2016-04-11T13:23:49.827Z,4.3
2016-04-11T13:24:03.624Z,4.42
2016-04-11T13:24:17.720Z,4.65
2016-04-11T13:24:37.627Z,4.83
2016-04-11T13:24:51.423Z,4.97
2016-04-11T13:25:05.533Z,5.08
2016-04-11T13:25:33.519Z,5.21
2016-04-11T13:25:47.613Z,5.26
2016-04-11T13:26:01.566Z,5.34
2016-04-11T13:26:15.382Z,5.42
2016-04-11T13:26:29.428Z,5.46
2016-04-11T13:26:43.319Z,5.51
2016-04-11T13:26:57.553Z,5.59
2016-04-11T13:27:11.522Z,5.67
2016-04-11T13:27:25.368Z,5.7
2016-04-11T13:27:53.290Z,5.8
2016-04-11T13:28:06.571Z,5.92
2016-04-11T13:28:23.512Z,5.91
2016-04-11T13:28:37.715Z,5.99
2016-04-11T13:28:54.996Z,5.92
2016-04-11T13:29:09.621Z,5.87
2016-04-11T13:29:24.140Z,5.82
2016-04-11T13:29:38.202Z,5.78
2016-04-11T13:29:52.171Z,5.75
2016-04-11T13:30:06.108Z,5.63
2016-04-11T13:30:20.277Z,5.6
2016-04-11T13:30:48.199Z,5.49
2016-04-11T13:31:02.137Z,5.41
2016-04-11T13:31:30.638Z,5.42
2016-04-11T13:31:44.497Z,5.33
2016-04-11T13:31:57.685Z,5.46
2016-04-11T13:32:11.810Z,5.55
2016-04-11T13:32:25.920Z,5.6
2016-04-11T13:32:39.811Z,5.77
2016-04-11T13:32:53.748Z,5.84
2016-04-11T13:33:07.483Z,6.02
2016-04-11T13:33:21.170Z,6.14
2016-04-11T13:33:34.764Z,6.26
2016-04-11T13:33:48.983Z,6.21
2016-04-11T13:34:03.170Z,6.02
2016-04-11T13:34:17.093Z,6.07
2016-04-11T13:34:45.171Z,6.2
2016-04-11T13:34:59.187Z,6.43
2016-04-11T13:35:12.984Z,6.42
2016-04-11T13:35:26.786Z,6.4
2016-04-11T13:35:40.786Z,6.29
2016-04-11T13:35:54.677Z,6.26
2016-04-11T13:36:08.677Z,6.34
2016-04-11T13:36:22.524Z,6.25
2016-04-11T13:36:36.461Z,6.4
2016-04-11T13:36:50.477Z,6.51
2016-04-11T13:37:04.696Z,6.61
2016-04-11T13:37:18.527Z,6.57
2016-04-11T13:37:32.543Z,6.68
2016-04-11T13:37:46.543Z,6.58
2016-04-11T13:38:00.340Z,6.62
2016-04-11T13:38:14.449Z,6.72
2016-04-11T13:38:28.545Z,6.68
2016-04-11T13:38:42.717Z,6.72
2016-04-11T13:38:56.827Z,6.73
2016-04-11T13:39:10.998Z,6.78
2016-04-11T13:39:25.033Z,6.78
2016-04-11T13:39:38.908Z,6.75
2016-04-11T13:39:52.580Z,6.83
2016-04-11T13:40:07.002Z,6.79
2016-04-11T13:40:20.995Z,6.68
2016-04-11T13:40:34.823Z,6.78
2016-04-11T13:40:48.808Z,6.75
2016-04-11T13:41:02.636Z,6.68
2016-04-11T13:41:16.520Z,6.64
2016-04-11T13:41:31.114Z,6.58
2016-04-11T13:41:45.035Z,6.49
2016-04-11T13:41:59.145Z,6.44
2016-04-11T13:42:13.051Z,6.31
2016-04-11T13:42:27.137Z,6.24
2016-04-11T13:42:40.872Z,6.25
2016-04-11T13:42:54.856Z,6.18
2016-04-11T13:43:11.481Z,6.05
2016-04-11T13:43:26.208Z,6.03
2016-04-11T13:43:40.161Z,6.05
2016-04-11T13:43:54.098Z,6
2016-04-11T13:44:08.176Z,6.07
2016-04-11T13:44:21.920Z,6.02
2016-04-11T13:44:35.904Z,5.82
2016-04-11T13:44:50.232Z,5.78
2016-04-11T13:45:04.404Z,5.75
2016-04-11T13:45:32.394Z,5.78
2016-04-11T13:45:46.503Z,5.8
2016-04-11T13:46:00.503Z,5.8
2016-04-11T13:46:17.320Z,5.84
2016-04-11T13:46:31.274Z,5.91
2016-04-11T13:46:45.211Z,6.02
2016-04-11T13:46:59.602Z,6.15
2016-04-11T13:47:13.602Z,6.2
2016-04-11T13:47:41.607Z,6.2
2016-04-11T13:47:55.607Z,6.31
2016-04-11T13:48:09.279Z,6.43
2016-04-11T13:48:23.330Z,6.39
2016-04-11T13:48:37.127Z,6.26
2016-04-11T13:48:50.940Z,6.17
2016-04-11T13:49:22.085Z,6.36
2016-04-11T13:49:35.960Z,6.49
2016-04-11T13:49:50.101Z,6.58
2016-04-11T13:50:03.976Z,6.62
2016-04-11T13:50:18.058Z,6.52
2016-04-11T13:50:32.152Z,6.57
2016-04-11T13:50:46.089Z,6.43
2016-04-11T13:51:00.152Z,6.42
2016-04-11T13:51:14.058Z,6.36
2016-04-11T13:51:42.624Z,6.21
2016-04-11T13:52:10.577Z,6.1
2016-04-11T13:52:24.721Z,5.91
2016-04-11T13:52:38.831Z,5.84
2016-04-11T13:52:52.768Z,5.88
2016-04-11T13:53:06.487Z,5.7
2016-04-11T13:53:19.928Z,5.73
2016-04-11T13:53:34.193Z,5.51
2016-04-11T13:53:48.037Z,5.41
2016-04-11T13:54:04.021Z,5.23
2016-04-11T13:54:16.338Z,5.15
2016-04-11T13:54:30.447Z,5.24
2016-04-11T13:55:15.888Z,5.27
2016-04-11T13:55:29.935Z,5.34
2016-04-11T13:55:43.669Z,5.24
2016-04-11T13:55:57.794Z,5.15
2016-04-11T13:56:14.731Z,4.72
2016-04-11T13:56:28.547Z,4.75
2016-04-11T13:56:42.328Z,4.76
2016-04-11T13:56:56.172Z,4.65
2016-04-11T13:57:10.031Z,4.65
2016-04-11T13:57:23.941Z,4.65
2016-04-11T13:57:37.972Z,4.75
2016-04-11T13:57:52.050Z,4.83
2016-04-11T13:58:05.956Z,4.78
2016-04-11T13:58:19.912Z,4.88
2016-04-11T13:58:33.928Z,4.94
2016-04-11T13:58:47.787Z,4.94
2016-04-11T13:59:01.725Z,4.97
2016-04-11T13:59:15.600Z,4.9
2016-04-11T13:59:29.415Z,4.95
2016-04-11T13:59:43.103Z,5.08
2016-04-11T13:59:57.056Z,5.09
2016-04-11T14:00:25.042Z,5.13
2016-04-11T14:00:39.027Z,5.15
2016-04-11T14:00:53.105Z,5.18
2016-04-11T14:01:07.058Z,5.2
2016-04-11T14:01:21.045Z,5.1
2016-04-11T14:01:35.327Z,5.21
2016-04-11T14:01:49.577Z,5.13
2016-04-11T14:02:03.608Z,5.09
2016-04-11T14:02:17.642Z,5.23
2016-04-11T14:02:31.564Z,5.36
2016-04-11T14:02:45.548Z,5.28
2016-04-11T14:02:59.533Z,5.34
2016-04-11T14:03:13.767Z,5.42
2016-04-11T14:03:27.598Z,5.41
2016-04-11T14:03:41.567Z,5.45
2016-04-11T14:03:55.442Z,5.37
2016-04-11T14:04:09.504Z,5.41
2016-04-11T14:04:23.335Z,5.44
2016-04-11T14:04:37.350Z,5.51
2016-04-11T14:05:05.569Z,5.66
2016-04-11T14:05:20.463Z,5.84
2016-04-11T14:05:34.588Z,5.92
2016-04-11T14:05:49.228Z,5.91
2016-04-11T14:06:03.291Z,5.91
2016-04-11T14:06:17.153Z,5.96
2016-04-11T14:06:30.997Z,5.99
2016-04-11T14:06:45.028Z,5.99
2016-04-11T14:06:59.059Z,6
2016-04-11T14:07:13.169Z,6.03
2016-04-11T14:07:27.030Z,6.07
2016-04-11T14:07:41.405Z,6.14
2016-04-11T14:07:55.624Z,5.99
2016-04-11T14:08:09.843Z,6.1
2016-04-11T14:08:23.830Z,6.07
2016-04-11T14:08:38.049Z,6.09
2016-04-11T14:08:51.783Z,6.17
2016-04-11T14:09:06.236Z,6.13
2016-04-11T14:09:20.177Z,6.06
2016-04-11T14:09:34.302Z,6.09
2016-04-11T14:09:48.317Z,5.87
2016-04-11T14:10:02.520Z,5.95
2016-04-11T14:10:30.820Z,5.91